Time;durP1;ratioP1;P1;durP2;ratioP2;P2;SDS_P1;SDS_P2;PMS_P1;PMS_P2;Temp;Humidity;BMP_temperature;BMP_pressure;BME280_temperature;BME280_humidity;BME280_pressure;Samples;Min_cycle;Max_cycle;Signal;HPM_P1;HPM_P2
2024/02/21 00:01:38;;;;;;;18.02;8.90;;;9.40;99.90;;;;;;4953328;28;20051;-75
2024/02/21 00:04:05;;;;;;;17.85;7.55;;;9.50;99.90;;;;;;4930986;29;20040;-75
2024/02/21 00:06:33;;;;;;;12.00;6.25;;;9.40;99.90;;;;;;4915051;29;20047;-74
2024/02/21 00:09:02;;;;;;;14.38;8.10;;;9.50;99.90;;;;;;4922624;29;20047;-75
2024/02/21 00:11:29;;;;;;;15.75;8.75;;;9.40;99.90;;;;;;4936959;29;20147;-75
2024/02/21 00:13:56;;;;;;;13.27;7.22;;;9.50;99.90;;;;;;4935363;28;20050;-83
2024/02/21 00:16:23;;;;;;;14.82;6.93;;;9.40;99.90;;;;;;4943344;28;20047;-83
2024/02/21 00:18:50;;;;;;;11.23;6.07;;;9.50;99.90;;;;;;4929745;29;20043;-83
2024/02/21 00:21:18;;;;;;;10.95;6.68;;;9.50;99.90;;;;;;4928758;28;20055;-82
2024/02/21 00:23:45;;;;;;;9.68;5.80;;;9.50;99.90;;;;;;4959443;28;20051;-83
2024/02/21 00:26:16;;;;;;;12.25;6.75;;;9.50;99.90;;;;;;4963266;28;20043;-83
2024/02/21 00:28:43;;;;;;;18.85;7.47;;;9.50;99.90;;;;;;4953456;29;20051;-83
2024/02/21 00:31:11;;;;;;;13.48;7.93;;;9.50;99.90;;;;;;4939972;29;20043;-82
2024/02/21 00:33:38;;;;;;;13.32;7.10;;;9.50;99.90;;;;;;4928166;28;20483;-81
2024/02/21 00:36:05;;;;;;;13.10;6.97;;;9.50;99.90;;;;;;4936917;28;20053;-82
2024/02/21 00:38:32;;;;;;;11.93;6.50;;;9.50;99.90;;;;;;4929189;28;20047;-82
2024/02/21 00:40:59;;;;;;;13.50;7.78;;;9.50;99.90;;;;;;4950896;29;20046;-83
2024/02/21 00:43:26;;;;;;;14.35;8.45;;;9.50;99.90;;;;;;4938842;28;20046;-83
2024/02/21 00:45:53;;;;;;;13.55;6.35;;;9.50;99.90;;;;;;4932949;29;20111;-82
2024/02/21 00:48:23;;;;;;;13.77;6.70;;;9.50;99.90;;;;;;4936425;29;20047;-83
2024/02/21 00:50:53;;;;;;;15.93;7.75;;;9.50;99.90;;;;;;4927064;29;20054;-83
2024/02/21 00:53:21;;;;;;;14.43;7.57;;;9.50;99.90;;;;;;4939377;28;20090;-82
2024/02/21 00:55:48;;;;;;;12.02;7.65;;;9.50;99.90;;;;;;4904277;29;20411;-84
2024/02/21 00:58:15;;;;;;;11.35;6.72;;;9.50;99.90;;;;;;4924264;29;20043;-83
2024/02/21 01:00:42;;;;;;;17.77;7.95;;;9.50;99.90;;;;;;4940195;28;20444;-83
2024/02/21 01:03:09;;;;;;;13.95;7.13;;;9.50;99.90;;;;;;4907801;29;20078;-83
2024/02/21 01:05:36;;;;;;;14.95;7.55;;;9.50;99.90;;;;;;4908253;28;20282;-82
2024/02/21 01:08:04;;;;;;;15.00;8.23;;;9.50;99.90;;;;;;4943462;28;20057;-83
2024/02/21 01:10:31;;;;;;;14.05;7.47;;;9.50;99.90;;;;;;4910210;29;20056;-83
2024/02/21 01:12:58;;;;;;;13.15;7.28;;;9.50;99.90;;;;;;4908121;29;20396;-83
2024/02/21 01:15:25;;;;;;;16.85;8.27;;;9.50;99.90;;;;;;4911252;29;20130;-82
2024/02/21 01:17:54;;;;;;;21.08;8.73;;;9.50;99.90;;;;;;4940902;29;20051;-82
2024/02/21 01:20:21;;;;;;;10.82;6.85;;;9.50;99.90;;;;;;4941683;28;20491;-83
2024/02/21 01:22:48;;;;;;;13.45;7.60;;;9.50;99.90;;;;;;4942069;28;20101;-82
2024/02/21 01:25:18;;;;;;;14.93;7.68;;;9.50;99.90;;;;;;4932837;29;20047;-83
2024/02/21 01:27:47;;;;;;;13.65;7.15;;;9.50;99.90;;;;;;4919915;29;20122;-83
2024/02/21 01:30:14;;;;;;;13.98;6.43;;;9.50;99.90;;;;;;4920559;29;20043;-83
2024/02/21 01:32:41;;;;;;;12.32;6.95;;;9.50;99.90;;;;;;4920380;29;20051;-83
2024/02/21 01:35:10;;;;;;;18.05;8.85;;;9.50;99.90;;;;;;4937198;28;20051;-83
2024/02/21 01:37:37;;;;;;;16.17;8.40;;;9.50;99.90;;;;;;4942084;28;20053;-82
2024/02/21 01:40:05;;;;;;;12.30;7.53;;;9.50;99.90;;;;;;4956224;28;20045;-82
2024/02/21 01:42:32;;;;;;;17.15;8.38;;;9.40;99.90;;;;;;4901194;28;20138;-83
2024/02/21 01:45:00;;;;;;;12.13;6.47;;;9.40;99.90;;;;;;4933137;28;20051;-82
2024/02/21 01:47:27;;;;;;;13.02;7.35;;;9.40;99.90;;;;;;4920604;29;20051;-82
2024/02/21 01:49:54;;;;;;;14.60;8.52;;;9.40;99.90;;;;;;4926159;28;20053;-82
2024/02/21 01:52:21;;;;;;;15.90;7.75;;;9.40;99.90;;;;;;4936388;29;20050;-82
2024/02/21 01:54:49;;;;;;;14.60;7.38;;;9.40;99.90;;;;;;4916773;29;20059;-83
2024/02/21 01:57:16;;;;;;;16.55;8.52;;;9.40;99.90;;;;;;4974026;28;20054;-83
2024/02/21 01:59:43;;;;;;;17.92;8.20;;;9.40;99.90;;;;;;4934192;29;20051;-83
2024/02/21 02:02:10;;;;;;;13.35;7.50;;;9.40;99.90;;;;;;4940286;29;20047;-84
2024/02/21 02:04:39;;;;;;;19.05;9.30;;;9.40;99.90;;;;;;4911068;28;20047;-82
2024/02/21 02:07:07;;;;;;;18.92;8.50;;;9.40;99.90;;;;;;4942583;28;20039;-83
2024/02/21 02:09:35;;;;;;;13.57;8.02;;;9.40;99.90;;;;;;4940223;29;20040;-83
2024/02/21 02:12:02;;;;;;;11.50;6.95;;;9.40;99.90;;;;;;4938741;29;20066;-84
2024/02/21 02:14:29;;;;;;;13.18;6.85;;;9.40;99.90;;;;;;4942960;28;20041;-83
2024/02/21 02:16:56;;;;;;;16.35;7.28;;;9.40;99.90;;;;;;4924846;29;20051;-83
2024/02/21 02:19:23;;;;;;;18.48;8.50;;;9.40;99.90;;;;;;4906809;29;20123;-83
2024/02/21 02:22:09;;;;;;;14.90;8.00;;;9.40;99.90;;;;;;4945145;29;20079;-82
2024/02/21 02:24:36;;;;;;;12.95;6.82;;;9.40;99.90;;;;;;4919163;29;20056;-83
2024/02/21 02:27:03;;;;;;;14.88;7.82;;;9.40;99.90;;;;;;4909474;29;20047;-83
2024/02/21 02:29:32;;;;;;;14.85;8.35;;;9.40;99.90;;;;;;4910390;29;20555;-84
2024/02/21 02:31:59;;;;;;;21.80;8.57;;;9.40;99.90;;;;;;4959166;28;20109;-84
2024/02/21 02:34:26;;;;;;;14.57;7.47;;;9.40;99.90;;;;;;4941353;28;20462;-83
2024/02/21 02:36:54;;;;;;;16.13;8.88;;;9.40;99.90;;;;;;4912548;28;20051;-83
2024/02/21 02:39:21;;;;;;;18.35;9.95;;;9.40;99.90;;;;;;4941288;28;20054;-84
2024/02/21 02:41:48;;;;;;;18.02;9.07;;;9.40;99.90;;;;;;4933189;29;20044;-84
2024/02/21 02:44:16;;;;;;;16.08;8.35;;;9.40;99.90;;;;;;4927028;28;20047;-83
2024/02/21 02:46:43;;;;;;;19.85;9.38;;;9.40;99.90;;;;;;4961183;28;20035;-83
2024/02/21 02:49:10;;;;;;;14.63;7.88;;;9.40;99.90;;;;;;4960948;28;20051;-83
2024/02/21 02:51:40;;;;;;;16.75;8.75;;;9.40;99.90;;;;;;4948865;28;20407;-83
2024/02/21 02:54:07;;;;;;;20.10;10.38;;;9.40;99.90;;;;;;4914246;29;20603;-83
2024/02/21 02:56:34;;;;;;;17.42;8.98;;;9.40;99.90;;;;;;4939687;29;20044;-82
2024/02/21 02:59:01;;;;;;;20.70;9.57;;;9.30;99.90;;;;;;4921778;29;20059;-83
2024/02/21 03:01:29;;;;;;;18.60;9.90;;;9.30;99.90;;;;;;4916246;29;20051;-83
2024/02/21 03:03:56;;;;;;;16.45;9.05;;;9.40;99.90;;;;;;4880270;29;20079;-83
2024/02/21 03:06:23;;;;;;;16.52;9.25;;;9.30;99.90;;;;;;4892397;29;20044;-83
2024/02/21 03:08:52;;;;;;;22.63;10.10;;;9.30;99.90;;;;;;4919327;29;20062;-83
2024/02/21 03:11:28;;;;;;;15.32;8.20;;;9.30;99.90;;;;;;4915403;29;20082;-83
2024/02/21 03:13:56;;;;;;;18.42;8.60;;;9.30;99.90;;;;;;4913811;29;20404;-83
2024/02/21 03:16:24;;;;;;;14.25;8.00;;;9.30;99.90;;;;;;4888391;29;20044;-83
2024/02/21 03:18:51;;;;;;;18.73;8.85;;;9.30;99.90;;;;;;4906765;29;20083;-82
2024/02/21 03:21:18;;;;;;;13.70;8.18;;;9.30;99.90;;;;;;4946131;29;20083;-83
2024/02/21 03:23:46;;;;;;;15.48;7.43;;;9.30;99.90;;;;;;4900851;29;20416;-82
2024/02/21 03:26:16;;;;;;;11.68;6.95;;;9.30;99.90;;;;;;4940396;29;20043;-83
2024/02/21 03:28:48;;;;;;;15.80;7.82;;;9.30;99.90;;;;;;4892114;29;20142;-83
2024/02/21 03:31:17;;;;;;;17.13;8.65;;;9.30;99.90;;;;;;4908153;29;20043;-83
2024/02/21 03:33:45;;;;;;;13.75;7.68;;;9.30;99.90;;;;;;4922064;29;20040;-83
2024/02/21 03:36:18;;;;;;;16.15;8.02;;;9.30;99.90;;;;;;4895402;29;20076;-83
2024/02/21 03:38:45;;;;;;;12.10;7.15;;;9.30;99.90;;;;;;4901650;29;20393;-82
2024/02/21 03:41:12;;;;;;;15.35;7.60;;;9.30;99.90;;;;;;4953652;29;20031;-82
2024/02/21 03:43:39;;;;;;;13.15;7.80;;;9.30;99.90;;;;;;4909033;29;20043;-82
2024/02/21 03:46:06;;;;;;;13.55;7.03;;;9.30;99.90;;;;;;4912848;29;20047;-82
2024/02/21 03:48:33;;;;;;;10.98;6.82;;;9.30;99.90;;;;;;4917431;29;20048;-83
2024/02/21 03:51:00;;;;;;;9.85;6.35;;;9.30;99.90;;;;;;4938966;29;20040;-82
2024/02/21 03:53:28;;;;;;;9.57;5.65;;;9.30;99.90;;;;;;4895460;29;20475;-83
2024/02/21 03:55:56;;;;;;;9.43;4.88;;;9.30;99.90;;;;;;4924094;29;20118;-83
2024/02/21 03:58:23;;;;;;;11.32;6.50;;;9.30;99.90;;;;;;4929311;28;20051;-83
2024/02/21 04:00:51;;;;;;;14.07;5.50;;;9.30;99.90;;;;;;4950179;28;20094;-84
2024/02/21 04:03:19;;;;;;;14.25;6.68;;;9.30;99.90;;;;;;4935158;28;20043;-83
2024/02/21 04:05:46;;;;;;;12.50;6.28;;;9.30;99.90;;;;;;4948767;28;20077;-83
2024/02/21 04:08:14;;;;;;;9.20;5.15;;;9.30;99.90;;;;;;4928301;28;20141;-83
2024/02/21 04:10:41;;;;;;;10.98;5.07;;;9.30;99.90;;;;;;4957895;28;20046;-83
2024/02/21 04:13:09;;;;;;;11.10;4.90;;;9.30;99.90;;;;;;4926097;28;20066;-84
2024/02/21 04:15:36;;;;;;;13.32;5.10;;;9.30;99.90;;;;;;4959365;28;20376;-84
2024/02/21 04:18:03;;;;;;;9.35;4.13;;;9.30;99.90;;;;;;4930493;28;20113;-84
2024/02/21 04:20:30;;;;;;;12.95;4.50;;;9.30;99.90;;;;;;4919174;28;20098;-84
2024/02/21 04:22:57;;;;;;;9.43;4.57;;;9.40;99.90;;;;;;4932512;28;20047;-84
2024/02/21 04:25:24;;;;;;;8.38;3.22;;;9.30;99.90;;;;;;4913985;29;20128;-82
2024/02/21 04:27:52;;;;;;;8.85;3.38;;;9.30;99.90;;;;;;4953508;28;20042;-84
2024/02/21 04:30:19;;;;;;;8.68;4.32;;;9.30;99.90;;;;;;4952854;29;20058;-84
2024/02/21 04:32:52;;;;;;;7.75;3.70;;;9.40;99.90;;;;;;4968747;28;20043;-83
2024/02/21 04:35:19;;;;;;;9.25;3.45;;;9.30;99.90;;;;;;4926227;29;20051;-84
2024/02/21 04:37:47;;;;;;;9.48;3.53;;;9.40;99.90;;;;;;4953752;28;20097;-83
2024/02/21 04:40:14;;;;;;;7.22;3.40;;;9.30;99.90;;;;;;4911211;29;20098;-83
2024/02/21 04:42:41;;;;;;;6.13;3.00;;;9.30;99.90;;;;;;4914995;29;20043;-82
2024/02/21 04:45:09;;;;;;;7.32;3.03;;;9.40;99.90;;;;;;4941776;28;20057;-82
2024/02/21 04:47:36;;;;;;;6.72;3.17;;;9.30;99.90;;;;;;4917114;29;20515;-83
2024/02/21 04:50:03;;;;;;;6.57;3.03;;;9.40;99.90;;;;;;4952887;28;20058;-83
2024/02/21 04:52:30;;;;;;;5.53;3.03;;;9.30;99.90;;;;;;4958931;28;20051;-83
2024/02/21 04:54:58;;;;;;;12.40;4.78;;;9.30;99.90;;;;;;4932455;29;20087;-82
2024/02/21 04:57:25;;;;;;;7.57;3.60;;;9.30;99.90;;;;;;4920834;29;20043;-84
2024/02/21 04:59:52;;;;;;;7.75;2.92;;;9.30;99.90;;;;;;4894947;29;20103;-83
2024/02/21 05:02:22;;;;;;;8.48;3.80;;;9.30;99.90;;;;;;4922467;29;20495;-83
2024/02/21 05:04:49;;;;;;;9.20;3.92;;;9.30;99.90;;;;;;4930137;29;20564;-83
2024/02/21 05:07:17;;;;;;;7.63;3.90;;;9.30;99.90;;;;;;4920371;29;20047;-83
2024/02/21 05:09:44;;;;;;;9.13;4.07;;;9.30;99.90;;;;;;4920252;29;20050;-84
2024/02/21 05:12:11;;;;;;;5.90;2.83;;;9.30;99.90;;;;;;4908992;29;20055;-83
2024/02/21 05:14:38;;;;;;;5.85;3.00;;;9.30;99.90;;;;;;4904454;29;20106;-82
2024/02/21 05:17:05;;;;;;;6.68;3.45;;;9.30;99.90;;;;;;4919858;29;20071;-84
2024/02/21 05:19:32;;;;;;;7.97;3.13;;;9.30;99.90;;;;;;4904414;29;20046;-83
2024/02/21 05:21:59;;;;;;;12.23;4.70;;;9.30;99.90;;;;;;4917702;29;20043;-83
2024/02/21 05:24:26;;;;;;;10.48;5.13;;;9.30;99.90;;;;;;4904932;29;20052;-83
2024/02/21 05:26:54;;;;;;;13.00;5.70;;;9.30;99.90;;;;;;4904688;29;20083;-83
2024/02/21 05:29:24;;;;;;;10.50;4.85;;;9.30;99.90;;;;;;4905189;29;20051;-84
2024/02/21 05:31:51;;;;;;;13.10;5.38;;;9.30;99.90;;;;;;4899570;29;20054;-75
2024/02/21 05:34:19;;;;;;;9.05;5.25;;;9.30;99.90;;;;;;4928262;29;20114;-75
2024/02/21 05:36:52;;;;;;;10.80;5.65;;;9.30;99.90;;;;;;4925545;29;20056;-74
2024/02/21 05:39:19;;;;;;;9.80;6.22;;;9.30;99.90;;;;;;4923258;29;20031;-74
2024/02/21 05:41:46;;;;;;;9.18;5.20;;;9.30;99.90;;;;;;4931007;29;20035;-75
2024/02/21 05:44:13;;;;;;;8.55;5.70;;;9.30;99.90;;;;;;4923883;28;20047;-75
2024/02/21 05:46:40;;;;;;;7.47;4.70;;;9.30;99.90;;;;;;4917783;29;20557;-75
2024/02/21 05:49:10;;;;;;;10.07;5.22;;;9.30;99.90;;;;;;4903309;29;20055;-75
2024/02/21 05:51:37;;;;;;;9.93;5.38;;;9.30;99.90;;;;;;4919036;29;20059;-75
2024/02/21 05:54:04;;;;;;;9.77;5.30;;;9.30;99.90;;;;;;4928984;29;20562;-75
2024/02/21 05:56:31;;;;;;;10.30;5.85;;;9.30;99.90;;;;;;4928309;29;20083;-75
2024/02/21 05:58:58;;;;;;;11.13;5.10;;;9.30;99.90;;;;;;4909782;29;20058;-75
2024/02/21 06:01:25;;;;;;;12.70;5.50;;;9.30;99.90;;;;;;4912253;29;20150;-74
2024/02/21 06:03:53;;;;;;;11.57;6.47;;;9.30;99.90;;;;;;4920744;29;20118;-75
2024/02/21 06:06:21;;;;;;;11.00;6.07;;;9.30;99.90;;;;;;4925506;29;20047;-76
2024/02/21 06:08:52;;;;;;;11.82;6.05;;;9.30;99.90;;;;;;4904418;29;20036;-75
2024/02/21 06:11:19;;;;;;;10.77;5.22;;;9.30;99.90;;;;;;4903054;29;20051;-75
2024/02/21 06:13:52;;;;;;;11.43;6.03;;;9.30;99.90;;;;;;4920738;29;20154;-74
2024/02/21 06:16:19;;;;;;;12.27;6.25;;;9.30;99.90;;;;;;4888848;29;20040;-74
2024/02/21 06:18:47;;;;;;;12.77;6.35;;;9.30;99.90;;;;;;4902590;29;20532;-75
2024/02/21 06:21:16;;;;;;;9.88;6.13;;;9.30;99.90;;;;;;4903602;29;20043;-75
2024/02/21 06:23:43;;;;;;;14.82;6.30;;;9.30;99.90;;;;;;4895824;29;20086;-75
2024/02/21 06:26:11;;;;;;;12.73;6.93;;;9.30;99.90;;;;;;4921683;29;20035;-75
2024/02/21 06:28:38;;;;;;;14.70;6.95;;;9.30;99.90;;;;;;4944527;29;20442;-75
2024/02/21 06:31:05;;;;;;;14.18;7.13;;;9.30;99.90;;;;;;4895280;29;20047;-75
2024/02/21 06:33:32;;;;;;;13.90;5.85;;;9.30;99.90;;;;;;4913148;29;20138;-83
2024/02/21 06:35:59;;;;;;;12.35;5.72;;;9.30;99.90;;;;;;4912777;29;20062;-83
2024/02/21 06:38:26;;;;;;;10.13;5.78;;;9.30;99.90;;;;;;4904580;29;20067;-84
2024/02/21 06:40:54;;;;;;;11.50;6.18;;;9.30;99.90;;;;;;4889337;29;20122;-75
2024/02/21 06:43:22;;;;;;;13.70;6.28;;;9.30;99.90;;;;;;4908139;29;20055;-76
2024/02/21 06:45:52;;;;;;;12.05;5.50;;;9.30;99.90;;;;;;4931497;29;20067;-76
2024/02/21 06:48:19;;;;;;;13.30;5.90;;;9.30;99.90;;;;;;4925068;29;20483;-75
2024/02/21 06:50:48;;;;;;;10.55;5.47;;;9.30;99.90;;;;;;4905013;29;20047;-76
2024/02/21 06:53:16;;;;;;;12.55;4.85;;;9.30;99.90;;;;;;4909508;29;20052;-75
2024/02/21 06:55:45;;;;;;;14.07;5.35;;;9.30;99.90;;;;;;4887084;29;20048;-75
2024/02/21 06:58:13;;;;;;;9.88;4.60;;;9.30;99.90;;;;;;4911038;29;20142;-75
2024/02/21 07:00:42;;;;;;;10.35;5.45;;;9.30;99.90;;;;;;4884567;29;20065;-75
2024/02/21 07:03:09;;;;;;;11.85;5.45;;;9.30;99.90;;;;;;4902925;29;20044;-75
2024/02/21 07:05:36;;;;;;;11.77;6.32;;;9.30;99.90;;;;;;4922119;29;20047;-75
2024/02/21 07:08:03;;;;;;;11.77;6.38;;;9.30;99.90;;;;;;4918208;29;20048;-75
2024/02/21 07:10:30;;;;;;;9.27;5.22;;;9.30;99.90;;;;;;4914383;29;20071;-75
2024/02/21 07:12:57;;;;;;;11.88;4.78;;;9.30;99.90;;;;;;4913589;29;20411;-76
2024/02/21 07:15:26;;;;;;;13.05;5.20;;;9.30;99.90;;;;;;4924330;29;20047;-76
2024/02/21 07:17:53;;;;;;;11.40;5.68;;;9.30;99.90;;;;;;4903469;29;20052;-76
2024/02/21 07:20:21;;;;;;;13.60;6.53;;;9.30;99.90;;;;;;4914520;28;20047;-76
2024/02/21 07:22:48;;;;;;;9.43;4.78;;;9.30;99.90;;;;;;4904689;29;20484;-75
2024/02/21 07:25:15;;;;;;;9.35;4.85;;;9.40;99.90;;;;;;4903967;29;20048;-76
2024/02/21 07:27:44;;;;;;;11.57;5.40;;;9.40;99.90;;;;;;4918381;29;20039;-76
2024/02/21 07:30:11;;;;;;;12.80;6.18;;;9.40;99.90;;;;;;4921567;29;20495;-76
2024/02/21 07:32:43;;;;;;;9.52;5.20;;;9.40;99.90;;;;;;4895964;29;20567;-74
2024/02/21 07:35:11;;;;;;;10.10;5.25;;;9.40;99.90;;;;;;4907048;29;20044;-75
2024/02/21 07:37:39;;;;;;;10.13;4.35;;;9.40;99.90;;;;;;4921371;29;20050;-76
2024/02/21 07:40:11;;;;;;;8.10;4.30;;;9.40;99.90;;;;;;4921408;29;20059;-76
2024/02/21 07:42:38;;;;;;;7.18;3.95;;;9.40;99.90;;;;;;4911393;29;20043;-76
2024/02/21 07:45:10;;;;;;;7.15;3.83;;;9.40;99.90;;;;;;4873822;29;20066;-75
2024/02/21 07:47:37;;;;;;;10.73;4.38;;;9.50;99.90;;;;;;4931564;29;20048;-76
2024/02/21 07:50:05;;;;;;;11.45;4.95;;;9.40;99.90;;;;;;4910180;28;21139;-76
2024/02/21 07:52:32;;;;;;;12.10;5.13;;;9.50;99.90;;;;;;4917996;29;20518;-76
2024/02/21 07:54:59;;;;;;;12.90;5.40;;;9.50;99.90;;;;;;4927842;29;20070;-76
2024/02/21 07:57:26;;;;;;;12.63;5.35;;;9.50;99.90;;;;;;4885598;29;20047;-76
2024/02/21 07:59:53;;;;;;;11.43;5.00;;;9.50;99.90;;;;;;4922813;29;20043;-75
2024/02/21 08:02:20;;;;;;;8.48;4.25;;;9.50;99.90;;;;;;4923806;29;20166;-75
2024/02/21 08:04:47;;;;;;;11.50;4.93;;;9.50;99.90;;;;;;4916576;29;20459;-75
2024/02/21 08:07:15;;;;;;;10.93;5.38;;;9.50;99.90;;;;;;4894233;29;20515;-75
2024/02/21 08:09:42;;;;;;;13.10;6.32;;;9.60;99.90;;;;;;4898247;29;20046;-75
2024/02/21 08:12:09;;;;;;;11.77;5.68;;;9.50;99.90;;;;;;4907862;29;20048;-75
2024/02/21 08:14:36;;;;;;;15.77;6.15;;;9.60;99.90;;;;;;4926498;29;20166;-76
2024/02/21 08:17:03;;;;;;;13.48;6.03;;;9.60;99.90;;;;;;4928118;29;20118;-76
2024/02/21 08:19:31;;;;;;;9.52;4.72;;;9.60;99.90;;;;;;4907152;29;20072;-75
2024/02/21 08:21:58;;;;;;;9.55;4.78;;;9.60;99.90;;;;;;4922264;29;20054;-75
2024/02/21 08:24:25;;;;;;;9.65;5.60;;;9.60;99.90;;;;;;4914772;29;20044;-76
2024/02/21 08:26:53;;;;;;;13.02;5.80;;;9.70;99.90;;;;;;4906354;29;20044;-76
2024/02/21 08:29:23;;;;;;;15.68;5.72;;;9.70;99.90;;;;;;4894227;29;20052;-75
2024/02/21 08:31:50;;;;;;;9.85;4.65;;;9.70;99.90;;;;;;4905903;28;20074;-75
2024/02/21 08:34:18;;;;;;;10.50;5.35;;;9.80;99.90;;;;;;4912845;29;20055;-76
2024/02/21 08:36:45;;;;;;;10.80;5.18;;;9.80;99.90;;;;;;4921150;29;20055;-74
2024/02/21 08:39:16;;;;;;;11.50;5.90;;;9.80;99.90;;;;;;4925621;29;20051;-75
2024/02/21 08:41:43;;;;;;;17.25;7.07;;;9.90;99.90;;;;;;4921022;29;20050;-74
2024/02/21 08:44:28;;;;;;;11.20;6.43;;;9.80;99.90;;;;;;4908012;29;20042;-75
2024/02/21 08:46:55;;;;;;;11.68;5.90;;;9.90;99.90;;;;;;4889008;29;20052;-74
2024/02/21 08:49:23;;;;;;;12.00;5.93;;;9.90;99.90;;;;;;4924936;29;20043;-74
2024/02/21 08:51:52;;;;;;;11.85;5.82;;;9.80;99.90;;;;;;4950942;28;20070;-74
2024/02/21 08:54:19;;;;;;;9.95;5.55;;;9.90;99.90;;;;;;4894491;28;20058;-76
2024/02/21 08:56:46;;;;;;;11.02;5.47;;;9.90;99.90;;;;;;4945559;28;20058;-77
2024/02/21 08:59:14;;;;;;;13.13;5.85;;;9.90;99.90;;;;;;4927488;28;20051;-75
2024/02/21 09:01:42;;;;;;;10.70;6.05;;;9.90;99.90;;;;;;4932346;28;20053;-75
2024/02/21 09:04:11;;;;;;;11.80;6.50;;;9.90;99.90;;;;;;4932631;29;20364;-75
2024/02/21 09:06:41;;;;;;;12.98;6.93;;;9.90;99.90;;;;;;4932029;28;20483;-75
2024/02/21 09:09:09;;;;;;;12.43;5.72;;;9.90;99.90;;;;;;4941240;28;20470;-76
2024/02/21 09:11:37;;;;;;;15.93;6.05;;;10.00;99.90;;;;;;4932185;28;20063;-75
2024/02/21 09:14:04;;;;;;;10.77;4.93;;;10.00;99.90;;;;;;4923924;28;20050;-75
2024/02/21 09:16:32;;;;;;;12.32;5.15;;;10.00;99.90;;;;;;4923068;29;20399;-74
2024/02/21 09:19:00;;;;;;;9.18;4.85;;;10.00;99.90;;;;;;4938528;29;20047;-74
2024/02/21 09:21:28;;;;;;;12.05;5.68;;;10.10;99.90;;;;;;4922877;29;20452;-76
2024/02/21 09:23:55;;;;;;;9.88;4.97;;;10.10;99.90;;;;;;4962979;28;20495;-74
2024/02/21 09:26:26;;;;;;;12.60;6.28;;;10.10;99.90;;;;;;4934020;29;20102;-75
2024/02/21 09:28:53;;;;;;;8.80;5.05;;;10.10;99.90;;;;;;4939974;28;20050;-75
2024/02/21 09:31:23;;;;;;;9.65;3.72;;;10.20;99.90;;;;;;4942006;28;20047;-75
2024/02/21 09:33:51;;;;;;;8.13;4.45;;;10.20;99.90;;;;;;4931281;28;20044;-74
2024/02/21 09:36:18;;;;;;;9.88;4.72;;;10.20;99.90;;;;;;4935127;28;20054;-75
2024/02/21 09:38:45;;;;;;;8.85;4.28;;;10.30;99.90;;;;;;4923517;28;20086;-76
2024/02/21 09:41:23;;;;;;;11.18;5.22;;;10.30;99.90;;;;;;4927414;28;20102;-75
2024/02/21 09:43:53;;;;;;;10.02;4.30;;;10.30;99.90;;;;;;4935673;29;20107;-76
2024/02/21 09:46:44;;;;;;;14.10;6.68;;;10.30;99.90;;;;;;4919258;28;20045;-76
2024/02/21 09:49:34;;;;;;;9.50;5.65;;;10.30;99.90;;;;;;4934618;29;20074;-75
2024/02/21 09:52:05;;;;;;;9.88;4.30;;;10.30;99.90;;;;;;4909086;28;20055;-75
2024/02/21 09:54:34;;;;;;;10.80;5.88;;;10.30;99.90;;;;;;4932884;28;20071;-75
2024/02/21 09:57:05;;;;;;;10.00;4.88;;;10.40;99.90;;;;;;4948894;28;20418;-75
2024/02/21 09:59:33;;;;;;;9.93;4.53;;;10.40;99.90;;;;;;4952965;28;20051;-76
2024/02/21 10:02:01;;;;;;;9.40;4.72;;;10.40;99.90;;;;;;4941251;28;20045;-75
2024/02/21 10:04:29;;;;;;;8.40;4.50;;;10.40;99.90;;;;;;4941226;28;20522;-75
2024/02/21 10:06:58;;;;;;;7.07;4.10;;;10.50;99.90;;;;;;4919296;28;20492;-75
2024/02/21 10:09:29;;;;;;;6.60;4.18;;;10.50;99.90;;;;;;4929268;29;20039;-76
2024/02/21 10:12:09;;;;;;;9.32;4.18;;;10.60;99.90;;;;;;4938055;28;20050;-75
2024/02/21 10:14:37;;;;;;;8.23;4.32;;;10.60;99.90;;;;;;4934400;28;20047;-75
2024/02/21 10:17:09;;;;;;;7.88;4.15;;;10.60;99.90;;;;;;4950086;28;20062;-75
2024/02/21 10:19:36;;;;;;;6.38;3.35;;;10.70;99.90;;;;;;4928768;29;20039;-75
2024/02/21 10:22:07;;;;;;;7.07;3.40;;;10.70;99.90;;;;;;4932528;28;20045;-74
2024/02/21 10:24:37;;;;;;;5.45;3.00;;;10.80;99.90;;;;;;4926494;29;20406;-76
2024/02/21 10:27:10;;;;;;;7.93;3.40;;;10.80;99.90;;;;;;4927855;29;20047;-74
2024/02/21 10:29:39;;;;;;;6.53;2.88;;;10.90;99.90;;;;;;4937636;29;20047;-74
2024/02/21 10:32:13;;;;;;;5.60;3.40;;;10.80;99.90;;;;;;4927711;29;20043;-74
2024/02/21 10:34:42;;;;;;;5.10;3.13;;;10.70;99.90;;;;;;4927920;29;20507;-74
2024/02/21 10:37:11;;;;;;;6.32;3.30;;;10.70;99.90;;;;;;4955850;28;20533;-74
2024/02/21 10:39:39;;;;;;;4.90;2.83;;;10.60;99.90;;;;;;4940546;28;20487;-75
2024/02/21 10:42:10;;;;;;;4.97;2.30;;;10.60;99.90;;;;;;4923428;29;20050;-74
2024/02/21 10:44:41;;;;;;;5.72;2.80;;;10.50;99.90;;;;;;4930271;28;20447;-76
2024/02/21 10:47:11;;;;;;;4.53;2.88;;;10.50;99.90;;;;;;4935548;28;20503;-76
2024/02/21 10:49:40;;;;;;;6.28;2.75;;;10.40;99.90;;;;;;4919109;28;20108;-75
2024/02/21 10:52:27;;;;;;;4.03;2.47;;;10.40;99.90;;;;;;4943981;28;20455;-76
2024/02/21 10:55:09;;;;;;;5.53;3.00;;;10.40;99.90;;;;;;4932949;28;20150;-79
2024/02/21 10:57:38;;;;;;;5.13;2.70;;;10.40;99.90;;;;;;4925651;28;20092;-80
2024/02/21 11:00:12;;;;;;;5.43;2.50;;;10.30;99.90;;;;;;4929039;29;20047;-79
2024/02/21 11:02:40;;;;;;;5.57;2.85;;;10.30;99.90;;;;;;4949879;28;20483;-79
2024/02/21 11:05:08;;;;;;;5.28;2.58;;;10.40;99.90;;;;;;4932282;29;20043;-80
2024/02/21 11:07:37;;;;;;;8.70;2.88;;;10.30;99.90;;;;;;4912270;29;20046;-80
2024/02/21 11:10:07;;;;;;;4.70;2.78;;;10.30;99.90;;;;;;4951118;28;20090;-79
2024/02/21 11:12:34;;;;;;;4.78;2.80;;;10.30;99.90;;;;;;4931197;28;20051;-79
2024/02/21 11:15:06;;;;;;;4.13;2.35;;;10.40;99.90;;;;;;4940040;28;20439;-79
2024/02/21 11:17:33;;;;;;;5.32;2.78;;;10.40;99.90;;;;;;4938785;29;20075;-78
2024/02/21 11:20:13;;;;;;;4.40;1.90;;;10.40;99.90;;;;;;4949621;28;20043;-78
2024/02/21 11:22:44;;;;;;;4.25;1.88;;;10.50;99.90;;;;;;4931565;29;20043;-80
2024/02/21 11:25:11;;;;;;;4.15;2.20;;;10.50;99.90;;;;;;4922026;29;20047;-77
2024/02/21 11:27:39;;;;;;;4.57;2.20;;;10.50;99.90;;;;;;4940369;29;20051;-79
2024/02/21 11:30:06;;;;;;;6.15;3.35;;;10.60;99.90;;;;;;4896659;29;20058;-76
2024/02/21 11:32:33;;;;;;;4.85;2.90;;;10.60;99.90;;;;;;4900232;29;20047;-79
2024/02/21 11:35:05;;;;;;;7.88;3.25;;;10.60;99.90;;;;;;4925249;28;20449;-79
2024/02/21 11:37:38;;;;;;;5.35;2.60;;;10.60;99.90;;;;;;4933012;29;20476;-82
2024/02/21 11:40:09;;;;;;;4.90;2.70;;;10.60;99.90;;;;;;4925934;29;20133;-79
2024/02/21 11:42:38;;;;;;;6.57;2.80;;;10.60;99.90;;;;;;4944556;28;20047;-79
2024/02/21 11:45:09;;;;;;;6.72;2.80;;;10.50;99.90;;;;;;4938634;28;20472;-78
2024/02/21 11:47:38;;;;;;;5.25;3.13;;;10.50;99.90;;;;;;4942042;28;20418;-77
2024/02/21 11:50:10;;;;;;;7.47;3.42;;;10.50;99.90;;;;;;4931883;28;20054;-77
2024/02/21 11:52:40;;;;;;;5.60;2.72;;;10.50;99.90;;;;;;4961541;28;20677;-78
2024/02/21 11:55:08;;;;;;;9.23;3.30;;;10.40;99.90;;;;;;4909088;28;20051;-79
2024/02/21 11:57:42;;;;;;;7.53;4.28;;;10.40;99.90;;;;;;4934895;28;20514;-79
2024/02/21 12:00:14;;;;;;;6.53;3.80;;;10.40;99.90;;;;;;4950141;28;20055;-78
2024/02/21 12:02:42;;;;;;;6.60;3.15;;;10.40;99.90;;;;;;4908324;28;20066;-79
2024/02/21 12:05:10;;;;;;;8.27;3.22;;;10.30;99.90;;;;;;4927475;28;20039;-79
2024/02/21 12:07:40;;;;;;;5.72;3.00;;;10.30;99.90;;;;;;4912700;28;20051;-75
2024/02/21 12:10:11;;;;;;;7.97;3.75;;;10.30;99.90;;;;;;4956620;28;20118;-79
2024/02/21 12:12:39;;;;;;;6.43;3.40;;;10.30;99.90;;;;;;4939680;28;20349;-78
2024/02/21 12:15:07;;;;;;;6.15;2.88;;;10.30;99.90;;;;;;4940086;28;20093;-79
2024/02/21 12:17:38;;;;;;;6.95;3.15;;;10.40;99.90;;;;;;4944844;28;20044;-80
2024/02/21 12:20:08;;;;;;;7.57;3.08;;;10.50;99.90;;;;;;4953193;28;20102;-80
2024/02/21 12:22:43;;;;;;;7.53;3.00;;;10.50;99.90;;;;;;4934046;29;20090;-80
2024/02/21 12:25:26;;;;;;;6.20;2.78;;;10.60;99.90;;;;;;4932981;29;20051;-79
2024/02/21 12:27:53;;;;;;;5.07;3.30;;;10.70;99.90;;;;;;4942485;29;20234;-78
2024/02/21 12:30:20;;;;;;;5.43;2.35;;;10.80;99.90;;;;;;4906088;29;20044;-79
2024/02/21 12:32:48;;;;;;;6.78;2.83;;;11.00;99.90;;;;;;4930571;28;20047;-81
2024/02/21 12:35:18;;;;;;;6.10;1.85;;;11.10;99.90;;;;;;4959288;28;20078;-79
2024/02/21 12:37:48;;;;;;;3.72;1.50;;;11.30;99.90;;;;;;4916018;29;20043;-78
2024/02/21 12:40:17;;;;;;;3.72;2.10;;;11.30;99.90;;;;;;4937652;29;20050;-79
2024/02/21 12:42:45;;;;;;;4.63;2.33;;;11.40;99.90;;;;;;4914984;29;20381;-80
2024/02/21 12:45:12;;;;;;;3.42;1.45;;;11.50;99.90;;;;;;4929056;28;20089;-80
2024/02/21 12:47:40;;;;;;;3.95;1.77;;;11.50;99.90;;;;;;4908804;29;20035;-78
2024/02/21 12:50:07;;;;;;;2.95;1.38;;;11.50;99.90;;;;;;4923694;29;20082;-78
2024/02/21 12:52:35;;;;;;;3.40;1.80;;;11.50;99.90;;;;;;4939302;29;20052;-79
2024/02/21 12:55:03;;;;;;;3.75;1.83;;;11.50;99.90;;;;;;4935989;28;20466;-80